Time;durP1;ratioP1;P1;durP2;ratioP2;P2;SDS_P1;SDS_P2;PMS_P1;PMS_P2;Temp;Humidity;BMP_temperature;BMP_pressure;BME280_temperature;BME280_humidity;BME280_pressure;Samples;Min_cycle;Max_cycle;Signal;HPM_P1;HPM_P2
2022/04/01 00:00:35;;;;;;;10.00;4.97;;;4.30;99.90;;;;;;5093674;28;20171;-66
2022/04/01 00:03:00;;;;;;;7.03;4.63;;;4.20;99.90;;;;;;5093568;28;20555;-65
2022/04/01 00:05:26;;;;;;;7.37;4.73;;;4.20;99.90;;;;;;5075838;28;20624;-66
2022/04/01 00:07:52;;;;;;;10.07;5.03;;;4.20;99.90;;;;;;5076076;28;20194;-64
2022/04/01 00:10:17;;;;;;;10.33;5.47;;;4.20;99.90;;;;;;5093776;28;20160;-64
2022/04/01 00:12:44;;;;;;;11.30;5.23;;;4.20;99.90;;;;;;5075054;28;20191;-65
2022/04/01 00:15:12;;;;;;;6.50;4.90;;;4.20;99.90;;;;;;5093182;28;20668;-64
2022/04/01 00:17:39;;;;;;;13.77;5.10;;;4.20;99.90;;;;;;5093039;28;20164;-64
2022/04/01 00:20:05;;;;;;;11.93;5.00;;;4.20;99.90;;;;;;5093559;28;20165;-64
2022/04/01 00:22:30;;;;;;;8.57;5.00;;;4.20;99.90;;;;;;5093398;28;20259;-65
2022/04/01 00:24:58;;;;;;;11.30;5.30;;;4.10;99.90;;;;;;5095231;28;20178;-65
2022/04/01 00:27:24;;;;;;;9.83;4.97;;;4.20;99.90;;;;;;5097285;28;20574;-64
2022/04/01 00:29:49;;;;;;;7.97;5.13;;;4.10;99.90;;;;;;5098110;28;20184;-64
2022/04/01 00:32:15;;;;;;;7.80;5.07;;;4.20;99.90;;;;;;5093233;28;20160;-65
2022/04/01 00:34:41;;;;;;;16.93;4.70;;;4.10;99.90;;;;;;5093536;28;20194;-64
2022/04/01 00:37:06;;;;;;;7.67;5.30;;;4.10;99.90;;;;;;5093573;28;20299;-64
2022/04/01 00:39:33;;;;;;;8.10;4.87;;;4.20;99.90;;;;;;5093289;28;20524;-65
2022/04/01 00:42:00;;;;;;;7.00;5.00;;;4.10;99.90;;;;;;5093088;28;20159;-64
2022/04/01 00:44:28;;;;;;;10.30;5.40;;;4.00;99.90;;;;;;5075052;28;20203;-65
2022/04/01 00:47:06;;;;;;;9.40;5.33;;;4.00;99.90;;;;;;5096020;28;20167;-65
2022/04/01 00:49:33;;;;;;;10.30;5.60;;;4.00;99.90;;;;;;5105915;28;20251;-65
2022/04/01 00:52:03;;;;;;;13.73;5.33;;;4.00;99.90;;;;;;5111883;28;20173;-65
2022/04/01 00:54:28;;;;;;;8.70;5.50;;;4.20;99.90;;;;;;5107985;28;20230;-68
2022/04/01 00:56:54;;;;;;;10.03;5.33;;;4.20;99.90;;;;;;5099674;28;20527;-64
2022/04/01 00:59:21;;;;;;;9.07;5.53;;;4.10;99.90;;;;;;5103443;28;20265;-65
2022/04/01 01:01:48;;;;;;;9.40;5.40;;;4.10;99.90;;;;;;5104546;28;20163;-64
2022/04/01 01:04:15;;;;;;;8.50;4.97;;;4.00;99.90;;;;;;5100021;28;20163;-63
2022/04/01 01:06:44;;;;;;;12.97;5.37;;;4.10;99.90;;;;;;5096547;28;20175;-65
2022/04/01 01:09:10;;;;;;;9.00;5.30;;;4.10;99.90;;;;;;5096889;28;20175;-64
2022/04/01 01:11:37;;;;;;;9.43;4.83;;;4.10;99.90;;;;;;5096973;28;20221;-63
2022/04/01 01:14:10;;;;;;;11.87;5.40;;;4.10;99.90;;;;;;5097455;28;20202;-65
2022/04/01 01:16:40;;;;;;;9.50;4.53;;;4.10;99.90;;;;;;5096359;28;20167;-64
2022/04/01 01:19:12;;;;;;;8.63;5.50;;;4.00;99.90;;;;;;5096349;28;20172;-65
2022/04/01 01:21:39;;;;;;;11.37;5.50;;;4.10;99.90;;;;;;5095911;28;20148;-64
2022/04/01 01:24:07;;;;;;;7.50;4.87;;;4.10;99.90;;;;;;5096069;28;20204;-64
2022/04/01 01:26:36;;;;;;;9.83;4.77;;;4.10;99.90;;;;;;5096133;28;20230;-63
2022/04/01 01:29:04;;;;;;;8.90;5.00;;;4.10;99.90;;;;;;5096074;28;20581;-64
2022/04/01 01:31:30;;;;;;;8.50;4.80;;;4.10;99.90;;;;;;5095622;28;20157;-64
2022/04/01 01:33:58;;;;;;;8.37;5.63;;;4.20;99.90;;;;;;5096236;28;20296;-64
2022/04/01 01:36:25;;;;;;;8.13;4.53;;;4.10;99.90;;;;;;5096580;28;20507;-64
2022/04/01 01:38:51;;;;;;;9.70;4.90;;;4.20;99.90;;;;;;5083860;28;20181;-65
2022/04/01 01:41:17;;;;;;;8.63;5.00;;;4.20;99.90;;;;;;5075928;28;20156;-64
2022/04/01 01:43:43;;;;;;;9.70;5.27;;;4.30;99.90;;;;;;5075816;28;20236;-64
2022/04/01 01:46:10;;;;;;;8.67;4.67;;;4.30;99.90;;;;;;5075744;28;20585;-64
2022/04/01 01:48:36;;;;;;;6.47;4.57;;;4.30;99.90;;;;;;5076132;28;20182;-64
2022/04/01 01:56:42;;;;;;;6.53;4.10;;;4.40;99.90;;;;;;5075383;28;20338;-64
2022/04/01 01:59:11;;;;;;;7.00;4.90;;;4.20;99.90;;;;;;5074785;28;20245;-65
2022/04/01 02:01:38;;;;;;;8.27;4.10;;;4.30;99.90;;;;;;5075987;28;20157;-64
2022/04/01 02:04:04;;;;;;;7.30;4.23;;;4.20;99.90;;;;;;5075801;28;20184;-65
2022/04/01 02:06:29;;;;;;;8.47;4.87;;;4.30;99.90;;;;;;5074706;28;20518;-64
2022/04/01 02:08:55;;;;;;;9.73;4.70;;;4.30;99.90;;;;;;5075412;28;20168;-64
2022/04/01 02:11:21;;;;;;;5.90;3.67;;;4.30;99.90;;;;;;5075252;28;20185;-64
2022/04/01 02:13:48;;;;;;;5.50;4.00;;;4.20;99.90;;;;;;5074875;28;20191;-64
2022/04/01 02:16:14;;;;;;;6.43;4.27;;;4.20;99.90;;;;;;5074806;28;20176;-65
2022/04/01 02:18:40;;;;;;;7.23;4.10;;;4.20;99.90;;;;;;5075189;28;20168;-65
2022/04/01 02:21:10;;;;;;;11.93;4.30;;;4.30;99.90;;;;;;5074796;28;20156;-64
2022/04/01 02:23:40;;;;;;;8.03;4.17;;;4.30;99.90;;;;;;5074600;28;20244;-65
2022/04/01 02:26:06;;;;;;;6.37;4.30;;;4.30;99.90;;;;;;5075167;28;20229;-65
2022/04/01 02:28:31;;;;;;;7.93;3.93;;;4.40;99.90;;;;;;5074636;28;20156;-64
2022/04/01 02:30:57;;;;;;;8.43;3.87;;;4.30;99.90;;;;;;5057000;28;20168;-64
2022/04/01 02:33:23;;;;;;;13.00;4.33;;;4.30;99.90;;;;;;5075192;28;20197;-64
2022/04/01 02:35:50;;;;;;;10.70;4.43;;;4.30;99.90;;;;;;5075015;28;20604;-64
2022/04/01 02:38:16;;;;;;;6.93;3.97;;;4.30;99.90;;;;;;5076093;28;20174;-65
2022/04/01 02:40:41;;;;;;;6.17;3.53;;;4.30;99.90;;;;;;5074866;28;20166;-64
2022/04/01 02:43:07;;;;;;;5.30;3.60;;;4.30;99.90;;;;;;5074901;28;20167;-65
2022/04/01 02:45:32;;;;;;;4.47;3.00;;;4.30;99.90;;;;;;5074552;28;20157;-63
2022/04/01 02:47:58;;;;;;;6.97;3.70;;;4.30;99.90;;;;;;5074440;28;20222;-65
2022/04/01 02:50:25;;;;;;;5.67;3.83;;;4.30;99.90;;;;;;5074365;28;20250;-64
2022/04/01 02:52:50;;;;;;;11.50;3.87;;;4.40;99.90;;;;;;5074166;28;20183;-64
2022/04/01 02:55:16;;;;;;;6.67;3.80;;;4.30;99.90;;;;;;5084726;28;20337;-64
2022/04/01 02:57:42;;;;;;;5.40;3.37;;;4.30;99.90;;;;;;5076805;28;20184;-65
2022/04/01 03:00:09;;;;;;;5.37;3.10;;;4.40;99.90;;;;;;5094384;28;20155;-65
2022/04/01 03:02:38;;;;;;;5.63;3.40;;;4.40;99.90;;;;;;5094205;28;20172;-64
2022/04/01 03:05:05;;;;;;;4.97;2.83;;;4.20;99.90;;;;;;5094309;28;20355;-64
2022/04/01 03:07:31;;;;;;;4.60;3.07;;;4.30;99.90;;;;;;5094491;28;20194;-64
2022/04/01 03:09:56;;;;;;;4.67;3.10;;;4.30;99.90;;;;;;5075557;28;20264;-65
2022/04/01 03:12:22;;;;;;;6.37;3.57;;;4.30;99.90;;;;;;5099961;28;20166;-65
2022/04/01 03:14:48;;;;;;;5.03;3.07;;;4.30;99.90;;;;;;5104536;28;20199;-66
2022/04/01 03:17:14;;;;;;;7.43;3.43;;;4.40;99.90;;;;;;5109776;28;20184;-64
2022/04/01 03:19:40;;;;;;;7.27;3.67;;;4.30;99.90;;;;;;5094409;28;20613;-64
2022/04/01 03:22:06;;;;;;;4.57;3.40;;;4.50;99.90;;;;;;5094711;28;20164;-64
2022/04/01 03:24:32;;;;;;;2.83;2.23;;;4.30;99.90;;;;;;5094090;28;20167;-63
2022/04/01 03:26:58;;;;;;;5.83;2.90;;;4.30;99.90;;;;;;5094790;28;20179;-65
2022/04/01 03:29:23;;;;;;;6.67;3.60;;;4.30;99.90;;;;;;5094502;28;20174;-65
2022/04/01 03:31:51;;;;;;;6.07;3.00;;;4.20;99.90;;;;;;5094898;28;20165;-64
2022/04/01 03:34:17;;;;;;;3.97;2.70;;;4.10;99.90;;;;;;5094257;28;20658;-63
2022/04/01 03:36:44;;;;;;;5.90;2.60;;;4.10;99.90;;;;;;5094662;28;20191;-65
2022/04/01 03:39:10;;;;;;;6.30;3.20;;;4.20;99.90;;;;;;5094292;28;20167;-65
2022/04/01 03:41:36;;;;;;;5.60;3.43;;;4.10;99.90;;;;;;5094732;28;20212;-64
2022/04/01 03:44:02;;;;;;;4.10;3.03;;;4.00;99.90;;;;;;5094861;28;20231;-63
2022/04/01 03:46:45;;;;;;;5.00;3.00;;;4.10;99.90;;;;;;5110238;28;20629;-64
2022/04/01 03:49:14;;;;;;;5.60;3.50;;;4.10;99.90;;;;;;5098281;28;20171;-64
2022/04/01 03:51:42;;;;;;;4.57;3.10;;;4.00;99.90;;;;;;5104247;28;20202;-66
2022/04/01 03:54:10;;;;;;;6.43;3.97;;;4.10;99.90;;;;;;5102710;28;20190;-65
2022/04/01 03:56:37;;;;;;;10.80;3.80;;;4.00;99.90;;;;;;5102884;28;20211;-64
2022/04/01 03:59:03;;;;;;;5.17;3.40;;;4.00;99.90;;;;;;5100080;28;20167;-67
2022/04/01 04:01:28;;;;;;;9.00;3.17;;;4.00;99.90;;;;;;5101266;28;20166;-65
2022/04/01 04:04:00;;;;;;;4.77;3.37;;;4.00;99.90;;;;;;5109273;28;20172;-66
2022/04/01 04:06:26;;;;;;;3.77;2.97;;;4.00;99.90;;;;;;5108918;28;20174;-65
2022/04/01 04:08:57;;;;;;;7.67;3.90;;;4.00;99.90;;;;;;5105810;28;20164;-65
2022/04/01 04:11:28;;;;;;;5.10;3.40;;;4.00;99.90;;;;;;5096151;28;20561;-65
2022/04/01 04:13:55;;;;;;;6.47;3.33;;;3.90;99.90;;;;;;5093506;28;20195;-66
2022/04/01 04:16:29;;;;;;;3.90;3.13;;;3.90;99.90;;;;;;5094405;28;20178;-67
2022/04/01 04:19:17;;;;;;;7.23;3.50;;;4.00;99.90;;;;;;5094069;28;20267;-64
2022/04/01 04:22:11;;;;;;;5.47;3.80;;;3.90;99.90;;;;;;5095735;28;20544;-65
2022/04/01 04:24:52;;;;;;;7.53;3.47;;;3.70;99.90;;;;;;5095625;28;20190;-64
2022/04/01 04:27:21;;;;;;;7.23;3.70;;;3.80;99.90;;;;;;5097574;28;20259;-63
2022/04/01 04:29:50;;;;;;;4.10;2.83;;;3.80;99.90;;;;;;5097495;28;20165;-64
2022/04/01 04:32:38;;;;;;;4.80;3.30;;;3.70;99.90;;;;;;5097332;28;20574;-64
2022/04/01 04:35:09;;;;;;;5.70;3.40;;;3.60;99.90;;;;;;5097957;28;20198;-63
2022/04/01 04:37:37;;;;;;;8.07;3.70;;;3.50;99.90;;;;;;5097527;28;20244;-65
2022/04/01 04:40:04;;;;;;;6.03;3.20;;;3.60;99.90;;;;;;5097003;28;20259;-63
2022/04/01 04:42:33;;;;;;;5.63;3.50;;;3.60;99.90;;;;;;5098705;28;20243;-63
2022/04/01 04:44:59;;;;;;;9.77;3.23;;;3.50;99.90;;;;;;5097574;28;20207;-64
2022/04/01 04:47:32;;;;;;;7.77;3.83;;;3.50;99.90;;;;;;5097292;28;20241;-65
2022/04/01 04:49:58;;;;;;;6.03;3.70;;;3.50;99.90;;;;;;5097662;28;20186;-64
2022/04/01 04:52:32;;;;;;;5.27;3.60;;;3.40;99.90;;;;;;5097737;28;20174;-65
2022/04/01 04:54:59;;;;;;;4.73;3.43;;;3.50;99.90;;;;;;5097941;28;20234;-65
2022/04/01 04:57:27;;;;;;;6.90;4.40;;;3.40;99.90;;;;;;5104325;28;20189;-64
2022/04/01 04:59:56;;;;;;;7.83;3.40;;;3.40;99.90;;;;;;5101081;28;20163;-64
2022/04/01 05:02:43;;;;;;;6.73;3.73;;;3.20;99.90;;;;;;5097303;28;20235;-65
2022/04/01 05:05:28;;;;;;;8.90;3.47;;;3.30;99.90;;;;;;5096976;28;20205;-64
2022/04/01 05:08:04;;;;;;;8.03;3.80;;;3.20;99.90;;;;;;5096715;28;20194;-64
2022/04/01 05:10:51;;;;;;;8.07;4.10;;;3.00;99.90;;;;;;5096481;28;20161;-65
2022/04/01 05:13:38;;;;;;;6.70;3.67;;;2.90;99.90;;;;;;5096606;28;20461;-64
2022/04/01 05:16:09;;;;;;;5.23;3.70;;;2.80;99.90;;;;;;5095998;28;20162;-64
2022/04/01 05:18:42;;;;;;;6.40;3.57;;;2.80;99.90;;;;;;5096461;28;20159;-64
2022/04/01 05:21:19;;;;;;;11.63;3.80;;;2.70;99.90;;;;;;5096954;28;20159;-64
2022/04/01 05:24:00;;;;;;;6.20;3.67;;;2.70;99.90;;;;;;5097745;28;20250;-64
2022/04/01 05:26:40;;;;;;;6.97;4.20;;;2.70;99.90;;;;;;5097148;28;20236;-64
2022/04/01 05:29:13;;;;;;;10.10;3.77;;;2.80;99.90;;;;;;5097144;28;20219;-64
2022/04/01 05:32:02;;;;;;;7.80;4.87;;;2.60;99.90;;;;;;5098202;28;20155;-68
2022/04/01 05:34:41;;;;;;;10.03;4.23;;;2.70;99.90;;;;;;5095788;28;20201;-64
2022/04/01 05:37:08;;;;;;;6.47;4.20;;;2.70;99.90;;;;;;5096829;28;20257;-64
2022/04/01 05:39:36;;;;;;;7.20;4.23;;;2.60;99.90;;;;;;5096747;28;20546;-63
2022/04/01 05:42:03;;;;;;;6.83;4.30;;;2.40;99.90;;;;;;5096458;28;20588;-65
2022/04/01 05:44:29;;;;;;;6.70;3.87;;;2.50;99.90;;;;;;5096749;28;20163;-67
2022/04/01 05:46:56;;;;;;;8.43;4.73;;;2.50;99.90;;;;;;5097377;28;20227;-64
2022/04/01 05:49:22;;;;;;;5.87;4.07;;;2.50;99.90;;;;;;5078611;28;20178;-63
2022/04/01 05:51:49;;;;;;;8.00;4.37;;;2.50;99.90;;;;;;5096495;28;20642;-63
2022/04/01 05:54:19;;;;;;;10.97;4.77;;;2.50;99.90;;;;;;5095589;28;20219;-65
2022/04/01 05:56:45;;;;;;;7.93;4.80;;;2.40;99.90;;;;;;5095954;28;20174;-64
2022/04/01 05:59:12;;;;;;;9.07;5.37;;;2.50;99.90;;;;;;5096014;28;20182;-64
2022/04/01 06:02:15;;;;;;;6.87;4.67;;;2.70;99.90;;;;;;5095971;28;20155;-64
2022/04/01 06:05:03;;;;;;;7.40;4.47;;;2.60;99.90;;;;;;5095457;28;20316;-66
2022/04/01 06:07:44;;;;;;;18.23;5.73;;;2.50;99.90;;;;;;5095485;28;20158;-64
2022/04/01 06:10:20;;;;;;;14.77;5.33;;;2.60;99.90;;;;;;5095578;28;20604;-63
2022/04/01 06:12:52;;;;;;;11.43;7.63;;;2.40;99.90;;;;;;5095225;28;20172;-64
2022/04/01 06:15:47;;;;;;;9.90;6.27;;;2.30;99.90;;;;;;5095362;28;20236;-64
2022/04/01 06:18:30;;;;;;;11.07;5.63;;;2.30;99.90;;;;;;5095117;28;20597;-65
2022/04/01 06:21:01;;;;;;;8.83;5.57;;;2.10;99.90;;;;;;5081287;28;20174;-65
2022/04/01 06:23:45;;;;;;;8.57;5.47;;;2.20;99.90;;;;;;5101341;28;20160;-65
2022/04/01 06:26:13;;;;;;;8.20;4.77;;;2.30;99.90;;;;;;5099103;28;20208;-65
2022/04/01 06:29:15;;;;;;;14.47;9.47;;;2.30;99.90;;;;;;5096937;28;20159;-64
2022/04/01 06:31:47;;;;;;;12.90;6.90;;;2.30;99.90;;;;;;5092294;28;20182;-64
2022/04/01 06:34:33;;;;;;;8.87;5.50;;;2.30;99.90;;;;;;5095657;28;20186;-65
2022/04/01 06:37:04;;;;;;;12.17;6.20;;;2.20;99.90;;;;;;5095325;28;20182;-64
2022/04/01 06:39:38;;;;;;;8.03;6.00;;;2.40;99.90;;;;;;5094730;28;20219;-66
2022/04/01 06:42:06;;;;;;;11.93;6.87;;;2.40;99.90;;;;;;5110758;28;20170;-64
2022/04/01 06:44:32;;;;;;;8.17;5.70;;;2.50;99.90;;;;;;5094595;28;20178;-66
2022/04/01 06:46:57;;;;;;;12.37;6.63;;;2.50;99.90;;;;;;5094804;28;20167;-65
2022/04/01 06:49:23;;;;;;;9.03;6.33;;;2.40;99.90;;;;;;5095760;28;20594;-64
2022/04/01 06:51:49;;;;;;;8.23;6.43;;;2.40;99.90;;;;;;5096702;28;20216;-65
2022/04/01 06:54:15;;;;;;;8.37;5.63;;;2.50;99.90;;;;;;5094477;28;20187;-66
2022/04/01 06:56:41;;;;;;;6.93;5.40;;;2.40;99.90;;;;;;5094277;28;20172;-64
2022/04/01 06:59:07;;;;;;;8.07;5.10;;;2.60;99.90;;;;;;5094804;28;20237;-65
2022/04/01 07:01:34;;;;;;;8.07;5.03;;;2.20;99.90;;;;;;5094726;28;20247;-64
2022/04/01 07:03:59;;;;;;;10.40;6.40;;;2.50;99.90;;;;;;5094308;28;20159;-64
2022/04/01 07:06:25;;;;;;;14.20;8.77;;;2.30;99.90;;;;;;5094221;28;20502;-65
2022/04/01 07:08:51;;;;;;;6.90;5.00;;;2.50;99.90;;;;;;5094432;28;20167;-65
2022/04/01 07:11:17;;;;;;;11.60;6.40;;;2.30;99.90;;;;;;5094579;28;20173;-65
2022/04/01 07:13:43;;;;;;;12.13;6.17;;;2.20;99.90;;;;;;5094204;28;20654;-65
2022/04/01 07:16:10;;;;;;;8.63;5.10;;;2.20;99.90;;;;;;5094760;28;20170;-64
2022/04/01 07:18:37;;;;;;;9.97;5.87;;;2.40;99.90;;;;;;5094495;28;20171;-65
2022/04/01 07:21:03;;;;;;;33.27;16.83;;;2.40;99.90;;;;;;5093994;28;20163;-64
2022/04/01 07:23:28;;;;;;;22.80;11.50;;;2.60;99.90;;;;;;5094288;28;20188;-64
2022/04/01 07:25:54;;;;;;;21.97;12.00;;;2.50;99.90;;;;;;5094224;28;20177;-64
2022/04/01 07:28:20;;;;;;;12.37;6.93;;;2.60;99.90;;;;;;5094111;28;20163;-64
2022/04/01 07:30:46;;;;;;;10.27;7.90;;;2.50;99.90;;;;;;5094230;28;20491;-65
2022/04/01 07:33:11;;;;;;;10.60;6.20;;;2.40;99.90;;;;;;5094364;28;20230;-64
2022/04/01 07:35:37;;;;;;;7.03;5.77;;;2.30;99.90;;;;;;5094476;28;20627;-65
2022/04/01 07:38:04;;;;;;;8.47;4.93;;;2.30;99.90;;;;;;5094512;28;20158;-65
2022/04/01 07:40:30;;;;;;;10.17;5.77;;;2.20;99.90;;;;;;5094145;28;20151;-64
2022/04/01 07:42:56;;;;;;;7.93;6.20;;;2.40;99.90;;;;;;5096642;28;20496;-64
2022/04/01 07:45:23;;;;;;;9.33;6.20;;;2.30;99.90;;;;;;5097168;28;20163;-65
2022/04/01 07:47:50;;;;;;;11.23;5.77;;;2.30;99.90;;;;;;5075645;28;20186;-64
2022/04/01 07:50:18;;;;;;;9.47;5.87;;;2.30;99.90;;;;;;5094141;28;20246;-64
2022/04/01 07:52:44;;;;;;;8.30;5.90;;;2.20;99.90;;;;;;5093366;28;20216;-65
2022/04/01 07:55:13;;;;;;;8.93;6.00;;;2.40;99.90;;;;;;5092832;28;20238;-64
2022/04/01 07:57:39;;;;;;;9.00;6.57;;;2.20;99.90;;;;;;5075529;28;20175;-65
2022/04/01 08:00:07;;;;;;;7.93;6.47;;;2.30;99.90;;;;;;5093756;28;20254;-63
2022/04/01 08:02:33;;;;;;;9.10;6.33;;;2.30;99.90;;;;;;5093928;28;20159;-64
2022/04/01 08:04:59;;;;;;;11.17;6.13;;;2.30;99.90;;;;;;5094114;28;20539;-64
2022/04/01 08:07:24;;;;;;;12.30;7.73;;;2.30;99.90;;;;;;5093851;28;20193;-64
2022/04/01 08:09:50;;;;;;;6.40;4.80;;;2.30;99.90;;;;;;5093930;28;20178;-64
2022/04/01 08:12:16;;;;;;;8.17;5.90;;;2.20;99.90;;;;;;5093746;28;20245;-64
2022/04/01 08:14:42;;;;;;;7.63;5.80;;;2.20;99.90;;;;;;5094470;28;20493;-64
2022/04/01 08:17:14;;;;;;;7.67;5.50;;;2.20;99.90;;;;;;5096206;28;20178;-65
2022/04/01 08:19:40;;;;;;;8.00;5.60;;;2.20;99.90;;;;;;5093931;28;20151;-64
2022/04/01 08:22:07;;;;;;;6.87;5.47;;;2.30;99.90;;;;;;5093368;28;20167;-66
2022/04/01 08:24:32;;;;;;;8.77;5.90;;;2.00;99.90;;;;;;5093443;28;20163;-64
2022/04/01 08:27:00;;;;;;;8.37;5.90;;;1.90;99.90;;;;;;5092991;28;20162;-65
2022/04/01 08:29:27;;;;;;;8.20;5.97;;;2.20;99.90;;;;;;5093718;28;20166;-64
2022/04/01 08:31:53;;;;;;;8.30;6.20;;;2.30;99.90;;;;;;5093145;28;20155;-64
2022/04/01 08:34:19;;;;;;;11.33;7.20;;;2.20;99.90;;;;;;5093262;28;20182;-65
2022/04/01 08:36:44;;;;;;;8.83;6.67;;;2.20;99.90;;;;;;5093579;28;20175;-64
2022/04/01 08:39:10;;;;;;;10.20;6.87;;;2.40;99.90;;;;;;5075617;28;20194;-64
2022/04/01 08:41:36;;;;;;;14.40;9.47;;;2.40;99.90;;;;;;5093561;28;20584;-64
2022/04/01 08:44:03;;;;;;;11.40;8.87;;;2.30;99.90;;;;;;5093491;28;20163;-64
2022/04/01 08:46:29;;;;;;;10.47;7.57;;;2.20;99.90;;;;;;5093299;28;20169;-65
2022/04/01 08:48:55;;;;;;;10.27;8.00;;;2.30;99.90;;;;;;5092915;28;20202;-66
2022/04/01 08:51:21;;;;;;;10.47;7.73;;;2.30;99.90;;;;;;5093706;28;20171;-65
2022/04/01 08:53:46;;;;;;;9.20;7.17;;;2.20;99.90;;;;;;5093620;28;20285;-65
2022/04/01 08:56:14;;;;;;;11.33;8.17;;;2.40;99.90;;;;;;5092760;28;20222;-66
2022/04/01 08:58:40;;;;;;;11.17;8.17;;;2.40;99.90;;;;;;5074706;28;20252;-65
2022/04/01 09:01:06;;;;;;;13.07;8.33;;;2.40;99.90;;;;;;5093527;28;20166;-64
2022/04/01 09:03:34;;;;;;;11.23;7.77;;;2.40;99.90;;;;;;5093449;28;20166;-65
2022/04/01 09:06:03;;;;;;;12.30;8.33;;;2.40;99.90;;;;;;5093242;28;20159;-65
2022/04/01 09:08:37;;;;;;;12.33;7.27;;;2.60;99.90;;;;;;5096013;28;20170;-65
2022/04/01 09:11:07;;;;;;;9.90;7.43;;;2.50;99.90;;;;;;5097083;28;20159;-65
2022/04/01 09:13:37;;;;;;;15.43;6.77;;;2.70;99.90;;;;;;5097189;28;20258;-65
2022/04/01 09:16:03;;;;;;;8.23;6.37;;;2.70;99.90;;;;;;5098731;28;20493;-64
2022/04/01 09:18:33;;;;;;;11.30;6.50;;;2.80;99.90;;;;;;5102270;28;20251;-65
2022/04/01 09:20:59;;;;;;;7.87;5.67;;;2.90;99.90;;;;;;5102086;28;20182;-65
2022/04/01 09:23:25;;;;;;;8.90;5.77;;;2.80;99.90;;;;;;5103881;28;20595;-66
2022/04/01 09:25:52;;;;;;;11.57;5.93;;;2.70;99.90;;;;;;5101338;28;20517;-65
2022/04/01 09:28:24;;;;;;;11.00;5.60;;;2.80;99.90;;;;;;5097808;28;20175;-64
2022/04/01 09:30:57;;;;;;;11.83;5.60;;;2.60;99.90;;;;;;5078713;28;20265;-64
2022/04/01 09:33:22;;;;;;;6.60;4.50;;;2.90;99.90;;;;;;5078633;28;20178;-65
2022/04/01 09:35:51;;;;;;;8.80;4.57;;;2.90;99.90;;;;;;5096285;28;20251;-64
2022/04/01 09:38:17;;;;;;;9.47;4.67;;;3.20;99.90;;;;;;5096190;28;20225;-64
2022/04/01 09:40:44;;;;;;;8.87;4.60;;;3.10;99.90;;;;;;5096894;28;20159;-66
2022/04/01 09:43:10;;;;;;;8.97;5.47;;;3.40;99.90;;;;;;5098212;28;20158;-64
2022/04/01 09:45:36;;;;;;;11.37;5.10;;;3.30;99.90;;;;;;5096817;28;20178;-64
2022/04/01 09:48:05;;;;;;;6.50;4.20;;;3.30;99.90;;;;;;5097493;28;20211;-64
2022/04/01 09:50:33;;;;;;;10.60;4.90;;;3.10;99.90;;;;;;5103495;28;20158;-64
2022/04/01 09:53:13;;;;;;;8.70;5.10;;;3.20;99.90;;;;;;5098114;28;20234;-64
2022/04/01 09:55:45;;;;;;;6.10;4.17;;;3.10;99.90;;;;;;5096986;28;20230;-64
2022/04/01 09:58:12;;;;;;;10.47;5.07;;;3.10;99.90;;;;;;5098056;28;20171;-64
2022/04/01 10:00:40;;;;;;;7.50;4.03;;;3.30;99.90;;;;;;5096821;28;20178;-66
2022/04/01 10:03:06;;;;;;;10.67;5.00;;;3.40;99.90;;;;;;5079398;28;20170;-64
2022/04/01 10:05:36;;;;;;;9.23;4.80;;;3.60;99.90;;;;;;5096631;28;20171;-63
2022/04/01 10:08:04;;;;;;;8.43;5.07;;;3.60;99.90;;;;;;5077080;28;20180;-63
2022/04/01 10:10:31;;;;;;;11.23;4.50;;;3.50;99.90;;;;;;5095591;28;20155;-64
2022/04/01 10:13:01;;;;;;;7.63;5.07;;;3.50;99.90;;;;;;5095563;28;20173;-65
2022/04/01 10:15:30;;;;;;;6.67;4.57;;;3.90;99.90;;;;;;5095541;28;20195;-63
2022/04/01 10:17:58;;;;;;;7.50;5.20;;;3.70;99.90;;;;;;5095033;28;20262;-63
2022/04/01 10:20:35;;;;;;;10.13;5.90;;;3.70;99.90;;;;;;5076729;28;20254;-64
2022/04/01 10:23:06;;;;;;;7.43;5.30;;;3.90;99.90;;;;;;5095160;28;20290;-65
2022/04/01 10:25:37;;;;;;;9.47;4.60;;;3.70;99.90;;;;;;5095332;28;20173;-63
2022/04/01 10:28:04;;;;;;;6.77;4.27;;;3.60;99.90;;;;;;5077232;28;20203;-64
2022/04/01 10:30:32;;;;;;;7.07;4.73;;;4.00;99.90;;;;;;5095621;28;20173;-64
2022/04/01 10:32:58;;;;;;;7.90;5.33;;;4.00;99.90;;;;;;5095397;28;20583;-64
2022/04/01 10:35:29;;;;;;;8.53;4.00;;;3.90;99.90;;;;;;5095596;28;20197;-65
2022/04/01 10:38:16;;;;;;;6.63;4.43;;;3.80;99.90;;;;;;5095123;28;20185;-64
2022/04/01 10:40:50;;;;;;;22.10;12.30;;;3.80;99.90;;;;;;5094720;28;20551;-65
2022/04/01 10:43:21;;;;;;;25.20;11.73;;;3.70;99.90;;;;;;5094552;28;20503;-66
2022/04/01 10:46:16;;;;;;;18.13;9.60;;;3.70;99.90;;;;;;5076819;28;20175;-63
2022/04/01 10:52:11;;;;;;;9.17;5.63;;;4.10;99.90;;;;;;5094754;28;20175;-64
2022/04/01 10:54:42;;;;;;;13.77;5.47;;;3.80;99.90;;;;;;5094093;28;20231;-65
2022/04/01 10:57:10;;;;;;;8.60;5.97;;;3.90;99.90;;;;;;5094082;28;20289;-64
2022/04/01 10:59:46;;;;;;;8.20;5.50;;;3.70;99.90;;;;;;5094512;28;20205;-65
2022/04/01 11:02:15;;;;;;;9.80;5.63;;;3.80;99.90;;;;;;5094174;28;20222;-66
2022/04/01 11:04:44;;;;;;;11.43;6.07;;;3.60;99.90;;;;;;5094510;28;20493;-66
2022/04/01 11:07:22;;;;;;;9.00;5.73;;;3.40;99.90;;;;;;5095494;28;20192;-63
2022/04/01 11:09:50;;;;;;;8.13;5.63;;;3.60;99.90;;;;;;5093852;28;20160;-65
2022/04/01 11:12:25;;;;;;;7.67;4.93;;;3.70;99.90;;;;;;5075575;28;20176;-65
2022/04/01 11:14:59;;;;;;;7.70;5.10;;;3.80;99.90;;;;;;5093939;28;20627;-65
2022/04/01 11:17:49;;;;;;;7.70;5.10;;;3.50;99.90;;;;;;5076547;28;20191;-66
2022/04/01 11:20:26;;;;;;;8.50;5.37;;;3.50;99.90;;;;;;5083708;28;20190;-66
2022/04/01 11:22:59;;;;;;;13.07;6.33;;;3.70;99.90;;;;;;5094743;28;20155;-66
2022/04/01 11:25:24;;;;;;;15.97;9.20;;;3.40;99.90;;;;;;5094148;28;20167;-65
2022/04/01 11:27:55;;;;;;;11.40;5.90;;;3.60;99.90;;;;;;5093986;28;20161;-64
2022/04/01 11:30:24;;;;;;;9.43;5.57;;;3.60;99.90;;;;;;5093601;28;20220;-65
2022/04/01 11:32:57;;;;;;;9.87;5.50;;;3.20;99.90;;;;;;5094175;28;20592;-64
2022/04/01 11:35:25;;;;;;;47.93;25.20;;;3.40;99.90;;;;;;5094239;28;20613;-64
2022/04/01 11:37:51;;;;;;;16.90;11.00;;;3.60;99.90;;;;;;5094529;28;20177;-67
2022/04/01 11:40:25;;;;;;;7.80;5.60;;;3.60;99.90;;;;;;5093786;28;20187;-65
2022/04/01 11:42:57;;;;;;;12.10;4.73;;;3.60;99.90;;;;;;5094060;28;20198;-65
2022/04/01 11:45:24;;;;;;;9.77;6.00;;;3.70;99.90;;;;;;5093865;28;20178;-65
2022/04/01 11:47:50;;;;;;;6.90;4.30;;;3.80;99.90;;;;;;5093999;28;20163;-63
2022/04/01 11:50:19;;;;;;;16.27;5.90;;;3.60;99.90;;;;;;5093991;28;20174;-63
2022/04/01 11:52:48;;;;;;;6.30;3.90;;;3.50;99.90;;;;;;5094654;28;20161;-64
2022/04/01 11:55:20;;;;;;;24.77;10.60;;;3.60;99.90;;;;;;5095602;28;20226;-64
2022/04/01 11:57:47;;;;;;;15.27;7.13;;;3.50;99.90;;;;;;5097017;28;20201;-65
2022/04/01 12:00:14;;;;;;;12.87;6.20;;;3.60;99.90;;;;;;5095418;28;20155;-64
2022/04/01 12:02:41;;;;;;;10.03;5.57;;;3.90;99.90;;;;;;5094934;28;20216;-64
2022/04/01 12:05:07;;;;;;;13.70;7.10;;;3.80;99.90;;;;;;5093855;28;20209;-66
2022/04/01 12:10:24;;;;;;;6.77;4.20;;;4.00;99.90;;;;;;5093928;28;20155;-65
2022/04/01 12:12:53;;;;;;;8.63;5.33;;;4.10;99.90;;;;;;5093653;28;20204;-64
2022/04/01 12:15:39;;;;;;;7.50;4.60;;;4.10;99.90;;;;;;5093324;28;20235;-64
2022/04/01 12:18:11;;;;;;;10.93;5.13;;;4.20;99.90;;;;;;5094229;28;20155;-64
2022/04/01 12:20:48;;;;;;;5.77;3.77;;;4.20;99.90;;;;;;5095813;28;20592;-66
2022/04/01 12:23:16;;;;;;;11.03;4.37;;;4.10;99.90;;;;;;5111831;28;20175;-66
2022/04/01 12:25:44;;;;;;;7.43;4.10;;;4.40;99.90;;;;;;5096129;28;20159;-65
2022/04/01 12:28:15;;;;;;;22.87;11.70;;;4.60;99.90;;;;;;5078663;28;20173;-64
2022/04/01 12:30:47;;;;;;;3.57;3.03;;;4.60;99.90;;;;;;5094340;28;20171;-67
2022/04/01 12:33:30;;;;;;;11.93;9.53;;;4.60;99.90;;;;;;5095401;28;20158;-66
2022/04/01 12:36:08;;;;;;;16.00;8.70;;;4.50;99.90;;;;;;5093577;28;20167;-65
2022/04/01 12:38:39;;;;;;;7.00;5.10;;;4.60;99.90;;;;;;5092980;28;20469;-65
2022/04/01 12:41:15;;;;;;;6.57;4.40;;;4.40;99.90;;;;;;5093066;28;20162;-66
2022/04/01 12:43:46;;;;;;;6.30;3.93;;;4.70;99.90;;;;;;5096157;28;20169;-64
2022/04/01 12:46:19;;;;;;;110.50;56.20;;;4.90;99.90;;;;;;5097397;28;20255;-65
2022/04/01 12:49:10;;;;;;;34.50;18.77;;;5.20;99.90;;;;;;5097525;28;20154;-65
2022/04/01 12:51:37;;;;;;;7.10;4.40;;;5.30;99.90;;;;;;5089763;28;20634;-67
2022/04/01 12:54:08;;;;;;;9.73;4.23;;;5.10;99.90;;;;;;5096611;28;20201;-65
2022/04/01 12:56:41;;;;;;;10.60;4.83;;;5.20;99.90;;;;;;5079216;28;20178;-65
2022/04/01 12:59:06;;;;;;;5.27;3.03;;;5.20;99.90;;;;;;5112952;28;20181;-67
2022/04/01 13:01:35;;;;;;;5.37;3.10;;;5.00;99.90;;;;;;5096952;28;20169;-66
2022/04/01 13:04:01;;;;;;;8.90;3.07;;;5.20;99.90;;;;;;5097269;28;20174;-67
2022/04/01 13:06:28;;;;;;;4.97;3.60;;;5.00;99.90;;;;;;5097501;28;20166;-63
2022/04/01 13:09:03;;;;;;;4.20;3.23;;;5.20;99.90;;;;;;5097386;28;20587;-64
2022/04/01 13:11:46;;;;;;;5.67;3.23;;;5.10;99.90;;;;;;5079262;28;20184;-67
2022/04/01 13:14:28;;;;;;;4.30;3.03;;;5.50;99.90;;;;;;5113243;28;20212;-65
2022/04/01 13:16:56;;;;;;;6.57;3.27;;;5.50;99.50;;;;;;5078821;28;20170;-64